Time;durP1;ratioP1;P1;durP2;ratioP2;P2;SDS_P1;SDS_P2;PMS_P1;PMS_P2;Temp;Humidity;BMP_temperature;BMP_pressure;BME280_temperature;BME280_humidity;BME280_pressure;Samples;Min_cycle;Max_cycle;Signal;HPM_P1;HPM_P2
2023/06/05 00:01:36;;;;;;;23.23;11.70;;;;;;;16.13;100.00;95613.41;4982015;28;20982;-73
2023/06/05 00:04:03;;;;;;;18.53;12.53;;;;;;;15.98;100.00;95611.09;4995195;28;20246;-71
2023/06/05 00:06:28;;;;;;;18.57;11.93;;;;;;;16.13;100.00;95606.31;5010780;28;20905;-71
2023/06/05 00:08:54;;;;;;;21.40;12.13;;;;;;;16.06;100.00;95608.22;4992291;28;20529;-71
2023/06/05 00:11:20;;;;;;;19.30;12.70;;;;;;;15.89;100.00;95606.31;5002383;28;20806;-73
2023/06/05 00:13:45;;;;;;;17.63;12.10;;;;;;;15.92;100.00;95611.16;4997194;28;20261;-73
2023/06/05 00:16:11;;;;;;;19.93;11.50;;;;;;;15.99;100.00;95615.38;4994964;28;20235;-73
2023/06/05 00:18:37;;;;;;;18.40;11.40;;;;;;;15.82;100.00;95619.56;4995435;28;20617;-73
2023/06/05 00:21:03;;;;;;;22.37;11.60;;;;;;;15.58;100.00;95614.25;4993530;28;20241;-72
2023/06/05 00:23:35;;;;;;;18.90;11.60;;;;;;;15.68;100.00;95615.41;4997001;28;20395;-78
2023/06/05 00:26:03;;;;;;;17.93;11.50;;;;;;;15.71;100.00;95620.28;4993873;28;20277;-80
2023/06/05 00:28:28;;;;;;;16.47;11.40;;;;;;;15.62;100.00;95615.47;4993897;28;20223;-78
2023/06/05 00:30:54;;;;;;;19.30;11.17;;;;;;;15.63;100.00;95609.97;4991677;28;20247;-78
2023/06/05 00:33:20;;;;;;;17.17;11.27;;;;;;;15.76;100.00;95614.34;4997422;28;21428;-77
2023/06/05 00:35:45;;;;;;;18.73;11.10;;;;;;;15.80;100.00;95612.88;4987759;28;20962;-77
2023/06/05 00:38:13;;;;;;;17.03;11.17;;;;;;;15.62;100.00;95615.47;4993404;28;20266;-78
2023/06/05 00:40:39;;;;;;;17.33;11.23;;;;;;;15.36;100.00;95616.38;4996946;28;20242;-76
2023/06/05 00:43:07;;;;;;;17.83;11.00;;;;;;;15.41;100.00;95612.09;4996037;28;21319;-78
2023/06/05 00:45:33;;;;;;;17.30;10.83;;;;;;;15.57;100.00;95608.16;4996671;28;20235;-79
2023/06/05 00:47:59;;;;;;;18.73;10.87;;;;;;;15.57;100.00;95608.16;4996989;28;20234;-79
2023/06/05 00:50:24;;;;;;;17.27;10.97;;;;;;;15.47;100.00;95602.56;4995317;28;20236;-76
2023/06/05 00:52:50;;;;;;;18.37;10.73;;;;;;;15.59;100.00;95598.22;4977549;28;20224;-77
2023/06/05 00:55:16;;;;;;;17.60;10.73;;;;;;;15.60;100.00;95589.25;5002696;28;20231;-77
2023/06/05 00:57:44;;;;;;;16.40;10.63;;;;;;;15.72;100.00;95589.38;4994330;28;20246;-77
2023/06/05 01:00:12;;;;;;;16.40;10.70;;;;;;;15.74;100.00;95587.34;4993300;28;20231;-78
2023/06/05 01:02:38;;;;;;;16.87;10.87;;;;;;;15.86;100.00;95588.25;4998394;28;20281;-76
2023/06/05 01:05:04;;;;;;;15.40;11.03;;;;;;;15.68;100.00;95589.00;4978280;28;20230;-77
2023/06/05 01:07:32;;;;;;;15.77;11.10;;;;;;;15.50;100.00;95583.66;5002322;28;20242;-76
2023/06/05 01:10:03;;;;;;;18.33;11.00;;;;;;;15.70;100.00;95592.25;4970356;28;20787;-78
2023/06/05 01:12:41;;;;;;;15.17;10.23;;;;;;;15.72;100.00;95592.84;4992250;28;20258;-78
2023/06/05 01:15:07;;;;;;;16.03;10.10;;;;;;;15.78;100.00;95591.19;4997232;28;20235;-77
2023/06/05 01:17:33;;;;;;;17.33;10.70;;;;;;;15.71;100.00;95585.97;4986515;28;21023;-76
2023/06/05 01:20:00;;;;;;;16.03;10.87;;;;;;;15.74;100.00;95582.09;4994877;28;20249;-78
2023/06/05 01:22:26;;;;;;;14.60;10.13;;;;;;;15.55;100.00;95581.19;4989992;28;20231;-81
2023/06/05 01:24:52;;;;;;;17.80;10.27;;;;;;;15.23;100.00;95583.00;4990390;28;20234;-77
2023/06/05 01:27:17;;;;;;;15.40;10.30;;;;;;;15.28;100.00;95574.44;4995745;28;20227;-77
2023/06/05 01:29:55;;;;;;;16.90;10.60;;;;;;;15.33;100.00;95578.03;4994566;28;20247;-77
2023/06/05 01:32:48;;;;;;;16.30;10.13;;;;;;;15.34;100.00;95573.59;4976092;28;20253;-77
2023/06/05 01:35:17;;;;;;;18.20;10.63;;;;;;;15.20;100.00;95564.13;4993376;28;20247;-78
2023/06/05 01:37:48;;;;;;;18.47;10.03;;;;;;;15.35;100.00;95570.75;4976366;28;20231;-77
2023/06/05 01:40:15;;;;;;;15.03;10.10;;;;;;;15.05;100.00;95560.97;4992059;28;20330;-77
2023/06/05 01:42:41;;;;;;;17.43;10.30;;;;;;;15.23;100.00;95563.72;4958722;28;20239;-77
2023/06/05 01:45:08;;;;;;;15.33;9.53;;;;;;;15.37;100.00;95567.88;4994036;28;20976;-80
2023/06/05 01:47:35;;;;;;;16.80;10.00;;;;;;;15.46;100.00;95558.72;4985259;28;20280;-75
2023/06/05 01:50:00;;;;;;;16.27;9.93;;;;;;;15.27;100.00;95554.34;4988669;28;20272;-78
2023/06/05 01:52:28;;;;;;;17.80;10.30;;;;;;;15.18;100.00;95556.44;5009933;28;20266;-76
2023/06/05 01:54:54;;;;;;;15.73;10.13;;;;;;;15.34;100.00;95560.38;4985944;28;20231;-77
2023/06/05 01:57:20;;;;;;;17.73;10.50;;;;;;;15.24;100.00;95560.84;5006605;28;20227;-78
2023/06/05 01:59:46;;;;;;;18.50;10.23;;;;;;;15.32;100.00;95567.72;4968281;28;20351;-77
2023/06/05 02:02:13;;;;;;;19.43;9.93;;;;;;;15.45;100.00;95560.53;4992454;28;20231;-76
2023/06/05 02:04:38;;;;;;;15.93;10.47;;;;;;;15.37;100.00;95571.34;4995698;28;20258;-76
2023/06/05 02:07:05;;;;;;;18.70;10.37;;;;;;;15.40;100.00;95568.25;4995083;28;20718;-76
2023/06/05 02:09:33;;;;;;;18.60;10.70;;;;;;;15.36;100.00;95569.72;4986718;28;20315;-76
2023/06/05 02:12:05;;;;;;;22.10;10.20;;;;;;;15.22;100.00;95567.38;4998372;28;20235;-77
2023/06/05 02:14:32;;;;;;;16.40;10.43;;;;;;;15.28;100.00;95566.53;4975806;28;20784;-76
2023/06/05 02:16:58;;;;;;;17.77;9.67;;;;;;;15.29;100.00;95566.31;4995099;28;20250;-76
2023/06/05 02:19:23;;;;;;;14.63;10.40;;;;;;;15.00;100.00;95566.09;5007529;28;20255;-77
2023/06/05 02:21:51;;;;;;;16.80;10.10;;;;;;;14.96;100.00;95565.69;4965718;28;20231;-77
2023/06/05 02:24:18;;;;;;;16.17;10.10;;;;;;;15.10;100.00;95566.41;4964610;28;20864;-76
2023/06/05 02:26:44;;;;;;;18.70;10.33;;;;;;;15.03;100.00;95568.28;4978760;28;20245;-76
2023/06/05 02:29:09;;;;;;;16.73;10.23;;;;;;;15.02;100.00;95566.69;4992915;28;20235;-75
2023/06/05 02:31:36;;;;;;;14.03;9.87;;;;;;;15.08;100.00;95569.28;4995905;28;20281;-75
2023/06/05 02:34:02;;;;;;;15.73;9.83;;;;;;;15.13;100.00;95569.44;4979461;28;20234;-77
2023/06/05 02:36:32;;;;;;;17.30;9.63;;;;;;;15.04;100.00;95573.38;4990814;28;20227;-77
2023/06/05 02:38:58;;;;;;;13.47;9.47;;;;;;;14.81;100.00;95576.50;4989598;28;20242;-75
2023/06/05 02:41:26;;;;;;;16.97;9.97;;;;;;;14.94;100.00;95570.38;4990273;28;20228;-78
2023/06/05 02:43:56;;;;;;;16.57;9.73;;;;;;;14.80;100.00;95561.72;4976910;28;20230;-78
2023/06/05 02:46:21;;;;;;;17.67;9.80;;;;;;;14.98;100.00;95565.47;4986006;28;20242;-76
2023/06/05 02:48:47;;;;;;;15.53;10.10;;;;;;;15.03;100.00;95563.00;4994425;28;20262;-77
2023/06/05 02:51:12;;;;;;;15.30;9.87;;;;;;;15.15;100.00;95569.22;4988319;28;20743;-78
2023/06/05 02:53:40;;;;;;;14.70;9.50;;;;;;;15.18;100.00;95561.72;4991434;28;20749;-78
2023/06/05 02:56:06;;;;;;;16.13;10.20;;;;;;;15.26;100.00;95569.34;5007186;28;20301;-77
2023/06/05 02:58:33;;;;;;;17.53;9.97;;;;;;;15.27;100.00;95572.81;4992303;28;20231;-77
2023/06/05 03:01:03;;;;;;;16.87;10.70;;;;;;;14.99;100.00;95565.28;5000404;28;20227;-76
2023/06/05 03:03:37;;;;;;;19.03;11.03;;;;;;;15.13;100.00;95566.81;4989746;28;20300;-71
2023/06/05 03:06:09;;;;;;;20.73;10.93;;;;;;;15.02;100.00;95572.75;4992778;28;20320;-73
2023/06/05 03:08:38;;;;;;;18.50;10.67;;;;;;;15.10;100.00;95571.69;5001017;28;20330;-72
2023/06/05 03:11:03;;;;;;;20.50;11.27;;;;;;;15.08;100.00;95584.28;4985475;28;20258;-74
2023/06/05 03:13:30;;;;;;;17.47;10.80;;;;;;;15.20;100.00;95580.78;4995855;28;20390;-73
2023/06/05 03:16:00;;;;;;;19.87;11.00;;;;;;;15.31;100.00;95579.28;5000410;28;20661;-71
2023/06/05 03:18:32;;;;;;;17.17;10.57;;;;;;;15.23;100.00;95580.34;4991681;28;20227;-78
2023/06/05 03:20:57;;;;;;;17.83;11.10;;;;;;;14.93;100.00;95576.63;4984080;28;20227;-76
2023/06/05 03:23:23;;;;;;;16.70;10.90;;;;;;;15.08;100.00;95577.19;4992960;28;20354;-78
2023/06/05 03:25:50;;;;;;;16.60;10.47;;;;;;;15.16;100.00;95579.59;4990100;28;20254;-78
2023/06/05 03:28:16;;;;;;;14.73;10.43;;;;;;;15.16;100.00;95590.13;4989956;28;20223;-77
2023/06/05 03:30:41;;;;;;;15.67;9.57;;;;;;;15.24;100.00;95587.22;4994901;28;20323;-77
2023/06/05 03:33:07;;;;;;;16.90;10.20;;;;;;;15.34;100.00;95587.59;4992650;28;20279;-77
2023/06/05 03:35:33;;;;;;;16.80;10.07;;;;;;;15.40;100.00;95592.00;4993182;28;20242;-78
2023/06/05 03:37:59;;;;;;;20.47;10.70;;;;;;;15.39;100.00;95600.13;4988632;28;20268;-77
2023/06/05 03:40:24;;;;;;;17.10;10.00;;;;;;;15.39;100.00;95595.69;4989978;28;20302;-77
2023/06/05 03:42:50;;;;;;;19.17;10.23;;;;;;;15.43;100.00;95591.56;4985263;28;20230;-78
2023/06/05 03:45:16;;;;;;;15.53;10.20;;;;;;;15.42;100.00;95594.44;4999629;28;20326;-77
2023/06/05 03:47:43;;;;;;;16.43;9.90;;;;;;;15.50;100.00;95600.28;4990445;28;20227;-76
2023/06/05 03:50:09;;;;;;;17.97;10.30;;;;;;;15.42;100.00;95597.06;4983342;28;20234;-76
2023/06/05 03:52:37;;;;;;;18.77;10.10;;;;;;;15.56;100.00;95601.28;4966394;28;20651;-77
2023/06/05 03:55:05;;;;;;;16.03;9.90;;;;;;;15.67;100.00;95600.59;4987170;28;20242;-77
2023/06/05 03:57:32;;;;;;;17.57;10.10;;;;;;;15.64;100.00;95602.84;5006983;28;20230;-78
2023/06/05 03:59:57;;;;;;;16.30;10.00;;;;;;;15.54;100.00;95600.69;4992608;28;20338;-76
2023/06/05 04:02:23;;;;;;;15.90;9.83;;;;;;;15.71;100.00;95593.06;4992478;28;20261;-78
2023/06/05 04:04:53;;;;;;;15.67;10.47;;;;;;;15.71;100.00;95607.06;4991061;28;20281;-77
2023/06/05 04:07:22;;;;;;;17.57;10.93;;;;;;;15.74;100.00;95597.91;4993355;28;20302;-80
2023/06/05 04:09:50;;;;;;;17.27;10.83;;;;;;;15.74;100.00;95598.69;4993039;28;20647;-72
2023/06/05 04:12:16;;;;;;;21.20;11.23;;;;;;;15.75;100.00;95596.88;4989535;28;20243;-72
2023/06/05 04:14:42;;;;;;;18.63;11.43;;;;;;;15.71;100.00;95598.34;4989841;28;20235;-73
2023/06/05 04:17:12;;;;;;;24.93;12.00;;;;;;;15.79;100.00;95598.88;4995320;28;20231;-72
2023/06/05 04:22:38;;;;;;;16.87;11.07;;;;;;;15.86;100.00;95607.53;4893678;29;20250;-70
2023/06/05 04:25:05;;;;;;;23.73;11.90;;;;;;;15.97;100.00;95608.69;4887644;29;20234;-72
2023/06/05 04:27:30;;;;;;;22.80;11.93;;;;;;;15.99;100.00;95607.47;4888015;29;20242;-71
2023/06/05 04:29:56;;;;;;;23.10;12.20;;;;;;;16.02;100.00;95603.56;4864938;28;20222;-75
2023/06/05 04:32:25;;;;;;;21.27;11.83;;;;;;;15.91;100.00;95607.72;4837892;29;20239;-75
2023/06/05 04:34:56;;;;;;;19.33;12.07;;;;;;;15.72;100.00;95598.09;4873671;29;20238;-70
2023/06/05 04:37:22;;;;;;;21.43;12.30;;;;;;;15.76;100.00;95601.16;4876963;29;20250;-74
2023/06/05 04:40:02;;;;;;;22.03;12.83;;;;;;;15.89;100.00;95599.19;4890102;29;20233;-70
2023/06/05 04:42:34;;;;;;;23.50;12.43;;;;;;;15.88;100.00;95591.50;4869584;29;20244;-71
2023/06/05 04:45:16;;;;;;;21.40;13.13;;;;;;;15.92;100.00;95596.13;4887030;28;20249;-70
2023/06/05 04:47:45;;;;;;;20.53;12.73;;;;;;;16.05;100.00;95601.28;4873842;29;20238;-70
2023/06/05 04:50:22;;;;;;;21.30;12.80;;;;;;;16.15;100.00;95598.16;4875239;29;20245;-71
2023/06/05 04:52:48;;;;;;;24.40;13.30;;;;;;;16.08;100.00;95589.50;4871601;28;20358;-71
2023/06/05 04:55:14;;;;;;;24.40;13.20;;;;;;;16.29;100.00;95596.22;4890687;29;20259;-70
2023/06/05 04:57:40;;;;;;;22.50;13.40;;;;;;;16.27;100.00;95593.78;4905344;29;20234;-72
2023/06/05 05:00:19;;;;;;;22.23;12.97;;;;;;;16.28;100.00;95603.34;4890215;29;20234;-76
2023/06/05 05:02:45;;;;;;;22.13;13.80;;;;;;;16.30;100.00;95609.22;4884780;29;20234;-76
2023/06/05 05:05:13;;;;;;;24.23;13.37;;;;;;;16.33;100.00;95610.59;4886700;29;20242;-70
2023/06/05 05:07:40;;;;;;;25.40;12.67;;;;;;;16.19;100.00;95597.50;4903245;29;20275;-73
2023/06/05 05:10:08;;;;;;;20.00;12.67;;;;;;;16.48;100.00;95595.22;4877722;29;20257;-72
2023/06/05 05:12:42;;;;;;;22.67;13.27;;;;;;;16.77;100.00;95591.88;4877201;29;20241;-72
2023/06/05 05:15:09;;;;;;;23.00;12.80;;;;;;;17.10;100.00;95586.97;4877421;29;20236;-74
2023/06/05 05:17:37;;;;;;;26.40;13.53;;;;;;;17.31;100.00;95594.44;4912150;29;20719;-75
2023/06/05 05:20:04;;;;;;;23.97;13.40;;;;;;;17.53;100.00;95593.97;4911426;29;20238;-74
2023/06/05 05:22:29;;;;;;;21.97;13.60;;;;;;;17.50;100.00;95595.97;4907618;29;20234;-76
2023/06/05 05:24:58;;;;;;;23.77;13.57;;;;;;;17.42;100.00;95598.97;4913265;28;20318;-72
2023/06/05 05:27:47;;;;;;;23.57;13.27;;;;;;;17.50;100.00;95593.34;4912002;29;20242;-71
2023/06/05 05:30:18;;;;;;;21.13;13.20;;;;;;;18.74;98.73;95597.66;4909272;29;20321;-73
2023/06/05 05:32:46;;;;;;;21.60;12.87;;;;;;;18.45;99.00;95596.72;4903393;29;20277;-73
2023/06/05 05:35:12;;;;;;;20.27;12.83;;;;;;;18.09;100.00;95594.31;4889606;29;20325;-72
2023/06/05 05:37:38;;;;;;;21.73;14.10;;;;;;;17.99;100.00;95597.53;4906477;29;20234;-72
2023/06/05 05:40:05;;;;;;;22.70;13.67;;;;;;;18.03;100.00;95597.88;4898567;29;21297;-73
2023/06/05 05:42:31;;;;;;;26.37;14.47;;;;;;;18.05;100.00;95593.97;4903881;29;20242;-72
2023/06/05 05:44:57;;;;;;;23.37;14.33;;;;;;;18.09;100.00;95594.31;4915544;29;20300;-76
2023/06/05 05:47:23;;;;;;;22.80;13.73;;;;;;;18.10;100.00;95587.97;4893238;29;20730;-71
2023/06/05 05:49:49;;;;;;;22.13;13.17;;;;;;;17.96;100.00;95581.28;4906438;29;20234;-72
2023/06/05 05:52:15;;;;;;;21.90;13.63;;;;;;;17.97;100.00;95574.94;4890514;29;20275;-71
2023/06/05 05:54:41;;;;;;;20.87;13.13;;;;;;;18.02;100.00;95583.81;4906261;29;20273;-72
2023/06/05 05:57:11;;;;;;;21.17;13.80;;;;;;;18.20;100.00;95582.91;4883706;29;20270;-73
2023/06/05 05:59:37;;;;;;;29.27;14.33;;;;;;;18.27;100.00;95575.63;4907784;29;20242;-72
2023/06/05 06:02:09;;;;;;;24.43;13.43;;;;;;;18.37;100.00;95580.34;4896847;28;21138;-71
2023/06/05 06:04:35;;;;;;;24.80;14.00;;;;;;;18.45;100.00;95572.06;4924944;28;20604;-77
2023/06/05 06:07:02;;;;;;;22.33;13.70;;;;;;;18.41;100.00;95579.69;4906783;28;20333;-77
2023/06/05 06:09:28;;;;;;;27.30;14.50;;;;;;;18.52;100.00;95576.25;4905104;28;20234;-76
2023/06/05 06:11:56;;;;;;;23.87;14.27;;;;;;;18.55;100.00;95574.97;4890631;28;20242;-76
2023/06/05 06:14:28;;;;;;;21.50;13.93;;;;;;;18.49;99.80;95578.53;4907282;28;20706;-74
2023/06/05 06:16:55;;;;;;;20.70;12.87;;;;;;;18.49;99.32;95579.34;4907165;29;20238;-76
2023/06/05 06:19:23;;;;;;;20.17;13.10;;;;;;;18.68;99.20;95580.81;4907131;29;20325;-73
2023/06/05 06:21:51;;;;;;;21.13;13.20;;;;;;;18.74;99.26;95573.78;4891137;28;20234;-73
2023/06/05 06:24:26;;;;;;;22.83;13.00;;;;;;;18.86;98.21;95585.19;4907587;29;20786;-73
2023/06/05 06:26:54;;;;;;;22.00;13.27;;;;;;;19.00;96.88;95591.03;4897947;29;21229;-72
2023/06/05 06:29:48;;;;;;;18.73;12.00;;;;;;;18.97;96.28;95584.34;4892593;29;20241;-72
2023/06/05 06:32:26;;;;;;;23.57;13.47;;;;;;;19.20;96.48;95572.84;4897722;28;20230;-72
2023/06/05 06:35:24;;;;;;;23.50;13.13;;;;;;;19.12;95.54;95575.88;4903390;28;20324;-72
2023/06/05 06:38:05;;;;;;;21.73;13.90;;;;;;;19.02;95.23;95573.00;4900110;28;20238;-73
2023/06/05 06:40:32;;;;;;;24.90;13.87;;;;;;;19.14;95.72;95579.09;4878806;29;20229;-72
2023/06/05 06:43:20;;;;;;;23.23;13.97;;;;;;;19.10;95.09;95577.97;4882065;29;20720;-71
2023/06/05 06:45:54;;;;;;;26.47;13.43;;;;;;;19.20;94.50;95570.97;4864367;28;20265;-71
2023/06/05 06:48:38;;;;;;;;;;;;;;;;;;;;;
2023/06/05 06:51:16;;;;;;;23.33;14.03;;;;;;;19.12;94.38;95567.91;4880759;28;20239;-71
2023/06/05 06:53:43;;;;;;;24.33;13.70;;;;;;;19.23;93.21;95572.34;4868237;29;20242;-72
2023/06/05 06:56:15;;;;;;;24.13;14.47;;;;;;;19.31;92.70;95569.34;4891443;29;20234;-72
2023/06/05 06:58:44;;;;;;;24.77;14.60;;;;;;;19.40;92.48;95576.72;4865034;29;20250;-76
2023/06/05 07:04:40;;;;;;;;;;;;;;;;;;;;;
2023/06/05 07:07:12;;;;;;;25.30;15.67;;;;;;;19.55;92.25;95559.44;4836659;29;20680;-71
2023/06/05 07:09:45;;;;;;;27.00;15.43;;;;;;;19.62;90.99;95562.75;4885368;29;20236;-72
2023/06/05 07:12:11;;;;;;;26.87;16.40;;;;;;;19.61;93.06;95569.91;4873426;29;20230;-75
2023/06/05 07:14:42;;;;;;;27.93;15.53;;;;;;;19.67;90.69;95566.31;4901704;29;20241;-75
2023/06/05 07:17:12;;;;;;;26.93;15.63;;;;;;;19.60;90.43;95554.22;4867232;29;20390;-74
2023/06/05 07:19:48;;;;;;;29.50;17.03;;;;;;;19.61;90.96;95561.94;4908807;29;20397;-75
2023/06/05 07:22:15;;;;;;;30.33;16.77;;;;;;;19.63;90.71;95559.84;4878112;28;20284;-71
2023/06/05 07:24:41;;;;;;;30.70;16.17;;;;;;;19.68;91.42;95559.16;4883458;29;20242;-72
2023/06/05 07:27:28;;;;;;;27.50;16.03;;;;;;;19.71;90.05;95567.41;4891936;29;20322;-71
2023/06/05 07:29:59;;;;;;;26.57;15.93;;;;;;;19.79;89.91;95568.88;4882901;29;20242;-73
2023/06/05 07:32:27;;;;;;;28.10;16.27;;;;;;;19.84;90.32;95569.78;4885420;29;20239;-76
2023/06/05 07:35:09;;;;;;;26.60;14.47;;;;;;;19.94;88.95;95569.94;4870877;28;20230;-76
2023/06/05 07:37:38;;;;;;;27.27;14.73;;;;;;;19.96;89.33;95570.50;4892975;29;20241;-75
2023/06/05 07:40:10;;;;;;;27.57;15.10;;;;;;;20.07;89.42;95569.63;4875228;29;20246;-74
2023/06/05 07:42:42;;;;;;;26.33;14.77;;;;;;;20.15;88.21;95579.03;4887955;29;20244;-74
2023/06/05 07:45:09;;;;;;;27.20;15.10;;;;;;;20.12;89.42;95579.50;4878035;29;20330;-75
2023/06/05 07:47:55;;;;;;;28.00;15.70;;;;;;;20.20;88.27;95583.63;4861727;29;20245;-75
2023/06/05 07:50:21;;;;;;;33.70;15.27;;;;;;;20.27;89.33;95593.09;4895248;29;20285;-75
2023/06/05 07:52:55;;;;;;;31.30;15.77;;;;;;;20.42;88.71;95589.84;4899073;29;20967;-75
2023/06/05 07:55:28;;;;;;;26.90;15.00;;;;;;;20.40;87.97;95591.91;4885309;29;20267;-76
2023/06/05 07:58:07;;;;;;;28.10;14.60;;;;;;;20.43;86.25;95584.28;4863137;29;20629;-75
2023/06/05 08:00:38;;;;;;;25.63;14.43;;;;;;;20.57;86.61;95576.75;4881142;29;20329;-74
2023/06/05 08:03:10;;;;;;;28.70;14.73;;;;;;;20.57;86.07;95587.38;4857421;29;20222;-76
2023/06/05 08:05:45;;;;;;;27.17;14.57;;;;;;;20.64;86.06;95572.06;4885172;29;20241;-72
2023/06/05 08:08:10;;;;;;;28.20;14.43;;;;;;;20.77;86.33;95585.00;4898260;29;20230;-73
2023/06/05 08:10:39;;;;;;;28.33;14.87;;;;;;;20.80;84.37;95579.97;4902392;29;20234;-74
2023/06/05 08:13:19;;;;;;;25.60;13.77;;;;;;;20.93;85.02;95583.34;4857958;29;20242;-72
2023/06/05 08:15:45;;;;;;;24.23;14.23;;;;;;;21.01;85.32;95589.06;4892453;29;20218;-71
2023/06/05 08:18:11;;;;;;;24.47;14.20;;;;;;;21.19;85.15;95583.44;4910749;29;20234;-71
2023/06/05 08:20:43;;;;;;;25.40;13.97;;;;;;;21.22;84.33;95588.25;4911183;29;20596;-74
2023/06/05 08:23:19;;;;;;;25.13;13.73;;;;;;;21.26;83.08;95588.56;4883489;29;20705;-71
2023/06/05 08:25:47;;;;;;;23.57;13.80;;;;;;;21.29;83.27;95588.88;4878555;29;20333;-70
2023/06/05 08:28:17;;;;;;;22.47;12.97;;;;;;;21.04;82.74;95583.22;4897745;29;20696;-72
2023/06/05 08:30:52;;;;;;;20.83;12.97;;;;;;;20.86;84.95;95596.03;4866009;29;20280;-71
2023/06/05 08:33:26;;;;;;;25.60;13.73;;;;;;;20.88;84.57;95584.09;4863992;29;20244;-72
2023/06/05 08:36:00;;;;;;;23.50;13.10;;;;;;;21.26;82.77;95601.88;4858065;29;20241;-72
2023/06/05 08:38:58;;;;;;;23.07;12.77;;;;;;;21.20;82.20;95598.38;4873222;29;20281;-72
2023/06/05 08:41:26;;;;;;;25.67;13.80;;;;;;;21.32;82.79;95591.03;4862549;29;20252;-76
2023/06/05 08:43:58;;;;;;;23.37;13.30;;;;;;;21.63;83.35;95597.50;4852796;29;20234;-74
2023/06/05 08:46:30;;;;;;;22.33;13.10;;;;;;;21.66;82.45;95593.53;4892278;29;20245;-76
2023/06/05 08:49:15;;;;;;;20.27;12.83;;;;;;;21.77;82.04;95592.56;4854562;29;20235;-74
2023/06/05 08:51:43;;;;;;;22.43;12.03;;;;;;;21.77;81.41;95601.34;4880635;29;20250;-74
2023/06/05 08:54:15;;;;;;;24.13;12.32;;;;;;;21.80;82.27;95600.06;4892631;29;20242;-75
2023/06/05 08:56:55;;;;;;;22.97;12.40;;;;;;;21.68;82.27;95588.75;4866453;29;20254;-76
2023/06/05 08:59:29;;;;;;;24.42;12.73;;;;;;;21.48;81.12;95598.13;4848550;29;20250;-74
2023/06/05 09:01:55;;;;;;;21.43;12.07;;;;;;;21.33;82.75;95592.63;4867085;29;20250;-74
2023/06/05 09:04:24;;;;;;;22.13;11.82;;;;;;;21.22;82.56;95582.94;4851985;29;20241;-75
2023/06/05 09:06:54;;;;;;;22.77;12.35;;;;;;;21.11;83.32;95586.50;4875528;29;20246;-75
2023/06/05 09:09:22;;;;;;;20.53;12.30;;;;;;;21.14;82.00;95588.69;4875225;29;20751;-74
2023/06/05 09:12:00;;;;;;;23.08;11.93;;;;;;;21.17;82.92;95593.53;4872351;29;20254;-75
2023/06/05 09:14:35;;;;;;;20.95;11.75;;;;;;;21.16;83.68;95591.91;4886067;29;20241;-75
2023/06/05 09:17:10;;;;;;;20.23;11.83;;;;;;;21.10;80.77;95595.56;4869981;29;20723;-76
2023/06/05 09:19:40;;;;;;;20.00;11.43;;;;;;;21.12;82.33;95592.66;4877922;29;20747;-76
2023/06/05 09:22:10;;;;;;;18.83;10.87;;;;;;;21.09;82.56;95593.94;4847515;29;20250;-75
2023/06/05 09:24:48;;;;;;;20.33;11.20;;;;;;;21.09;82.64;95593.16;4873445;29;20238;-75
2023/06/05 09:27:17;;;;;;;20.23;11.43;;;;;;;21.05;83.07;95594.69;4871658;29;20658;-74
2023/06/05 09:29:45;;;;;;;18.40;10.87;;;;;;;21.12;83.57;95588.13;4862262;29;20234;-72
2023/06/05 09:32:23;;;;;;;22.57;10.87;;;;;;;21.08;82.72;95592.34;4866765;29;20237;-72
2023/06/05 09:35:00;;;;;;;18.63;10.53;;;;;;;21.00;79.78;95586.63;4868851;29;20277;-72
2023/06/05 09:37:47;;;;;;;20.10;11.27;;;;;;;20.94;82.42;95587.63;4867051;29;20261;-72
2023/06/05 09:40:14;;;;;;;17.93;10.27;;;;;;;21.10;81.54;95602.75;4840307;29;20271;-71
2023/06/05 09:45:55;;;;;;;18.27;10.10;;;;;;;21.13;80.75;95594.28;4808976;29;20267;-72
2023/06/05 09:48:27;;;;;;;18.63;10.10;;;;;;;21.18;79.68;95600.47;4819628;29;20386;-72
2023/06/05 09:51:00;;;;;;;15.47;9.53;;;;;;;21.17;78.99;95592.72;4842944;29;20721;-73
2023/06/05 09:53:37;;;;;;;14.50;9.15;;;;;;;21.12;79.44;95582.81;4850148;29;20833;-71
2023/06/05 09:56:13;;;;;;;17.27;9.57;;;;;;;21.14;80.89;95579.88;4839821;29;20232;-69
2023/06/05 09:58:49;;;;;;;14.35;8.63;;;;;;;21.15;80.68;95577.00;4844323;29;20271;-71
2023/06/05 10:01:24;;;;;;;15.27;8.70;;;;;;;21.13;79.61;95573.78;4824142;29;20755;-71
2023/06/05 10:04:15;;;;;;;16.00;8.60;;;;;;;21.16;79.38;95581.25;4861789;29;21164;-71
2023/06/05 10:06:41;;;;;;;12.95;8.18;;;;;;;21.17;79.51;95576.75;4822521;29;20696;-76
2023/06/05 10:09:16;;;;;;;14.30;9.07;;;;;;;21.07;81.43;95572.09;4834521;29;20766;-76
2023/06/05 10:11:56;;;;;;;15.35;9.85;;;;;;;20.95;82.75;95575.91;4848469;29;20250;-71
2023/06/05 10:14:22;;;;;;;18.23;10.07;;;;;;;21.03;82.15;95567.50;4816665;29;20274;-72
2023/06/05 10:16:50;;;;;;;21.50;9.95;;;;;;;20.97;83.69;95565.84;4809759;29;20243;-72
2023/06/05 10:19:16;;;;;;;16.88;9.95;;;;;;;20.96;83.83;95565.03;4807702;29;20240;-71
2023/06/05 10:21:42;;;;;;;18.67;10.60;;;;;;;21.10;83.26;95571.63;4842413;29;20295;-74
2023/06/05 10:24:26;;;;;;;19.17;9.90;;;;;;;21.24;81.08;95556.84;4852919;29;20326;-74
2023/06/05 10:27:00;;;;;;;16.88;10.45;;;;;;;21.45;81.42;95566.66;4864527;29;20264;-74
2023/06/05 10:30:00;;;;;;;22.30;10.30;;;;;;;21.50;82.40;95565.91;4833740;29;20239;-76
2023/06/05 10:32:37;;;;;;;16.15;10.32;;;;;;;21.45;83.02;95571.19;4880017;29;20768;-76
2023/06/05 10:35:25;;;;;;;20.33;10.53;;;;;;;21.44;83.06;95567.75;4872602;29;20237;-77
2023/06/05 10:38:18;;;;;;;15.35;9.98;;;;;;;21.57;82.73;95560.38;4903451;29;20356;-77
2023/06/05 10:41:08;;;;;;;21.30;12.68;;;;;;;21.69;82.76;95556.50;4866461;29;20242;-75
2023/06/05 10:43:55;;;;;;;20.63;12.18;;;;;;;21.69;82.69;95561.03;4913324;29;20754;-77
2023/06/05 10:46:31;;;;;;;16.75;10.20;;;;;;;21.59;81.81;95555.63;4890825;29;20238;-75
2023/06/05 10:49:25;;;;;;;17.08;10.35;;;;;;;21.52;82.74;95547.03;4884056;29;20277;-76
2023/06/05 10:51:50;;;;;;;18.27;10.52;;;;;;;21.55;83.50;95555.31;4883247;29;20321;-76
2023/06/05 10:54:22;;;;;;;16.95;10.35;;;;;;;21.48;84.67;95550.19;4891618;29;20852;-76
2023/06/05 10:56:56;;;;;;;19.48;10.93;;;;;;;21.50;85.01;95555.25;4907747;29;20770;-76
2023/06/05 10:59:23;;;;;;;18.15;10.95;;;;;;;21.58;83.41;95544.16;4866821;29;20314;-75
2023/06/05 11:02:36;;;;;;;17.40;11.18;;;;;;;21.70;83.00;95543.97;4910236;28;20234;-76
2023/06/05 11:05:13;;;;;;;18.17;10.38;;;;;;;21.58;83.50;95551.34;4881138;29;20244;-77
2023/06/05 11:07:39;;;;;;;16.15;10.32;;;;;;;21.72;83.16;95548.00;4862545;29;20244;-71
2023/06/05 11:10:08;;;;;;;19.75;10.73;;;;;;;21.90;83.35;95538.88;4876286;29;20263;-71
2023/06/05 11:13:11;;;;;;;19.58;10.48;;;;;;;22.24;81.97;95536.69;4864740;29;20327;-72
2023/06/05 11:15:58;;;;;;;;;;;;;;;;;;;;;
2023/06/05 11:18:46;;;;;;;14.27;9.50;;;;;;;22.38;80.34;95532.53;4834894;29;20340;-71
2023/06/05 11:21:25;;;;;;;14.82;9.05;;;;;;;22.61;78.90;95532.97;4823445;29;20242;-70
2023/06/05 11:24:19;;;;;;;13.95;9.07;;;;;;;22.93;77.22;95532.81;4844075;29;20274;-70
2023/06/05 11:26:59;;;;;;;15.75;8.90;;;;;;;23.05;77.45;95525.38;4803166;29;20319;-71
2023/06/05 11:29:26;;;;;;;12.73;8.35;;;;;;;23.21;75.19;95526.25;4810653;29;20737;-71
2023/06/05 11:31:56;;;;;;;14.70;8.93;;;;;;;23.23;74.63;95521.44;4780779;29;20296;-73
2023/06/05 11:34:29;;;;;;;14.38;8.55;;;;;;;23.38;75.08;95513.50;4810931;29;20261;-71
2023/06/05 11:36:57;;;;;;;11.57;7.78;;;;;;;23.47;73.80;95524.47;4820030;29;20244;-71
2023/06/05 11:39:51;;;;;;;13.90;8.40;;;;;;;23.63;74.51;95520.72;4823502;29;20236;-72
2023/06/05 11:42:38;;;;;;;13.68;8.80;;;;;;;23.43;72.84;95511.63;4787921;29;21358;-71
2023/06/05 11:45:37;;;;;;;;;;;;;;;;;;;;;
2023/06/05 11:48:10;;;;;;;11.82;7.82;;;;;;;23.72;73.36;95508.44;4878884;29;20233;-76